Buoy 41560

sailwx.info

Track history (hours):
 
Tides and Currents Weather Stations Pressure Air Temp Water Temp Dewpoint Dewpoint Depression Visibility Wind Speed Wind Dir Waves Ship Positions

Drifting buoy 41560

Last reported at 2014-Sep-23 23:00 UTC. Time now 2014-Sep-24 02:27 UTC.
Position N 38°23' W 021°06'.

Barometer 1027.0 mb

Date/timePositionNaut miles runAvg speedWind from/ knotsBaromVisibWave heightAir tempDewpointWater temp
2014-Sep-23 23:00N 38°23' W 021°06'1 1.3 1027.0
2014-Sep-23 22:00N 38°24' W 021°05'1 1.1 1026.8
2014-Sep-23 21:00N 38°23' W 021°03'0 0.2 1026.7
2014-Sep-23 19:00N 38°23' W 021°03'1 0.6 1025.9
2014-Sep-23 17:00N 38°23' W 021°02'1 1.3 1025.2
2014-Sep-23 16:00N 38°24' W 021°01'0 0.4 1025.0
2014-Sep-23 15:00N 38°25' W 021°01'1 0.7 1025.2
2014-Sep-23 13:00N 38°26' W 020°60'0 0.4 1025.5
2014-Sep-23 12:00N 38°26' W 020°60'0 0.4 1025.6
2014-Sep-23 11:00N 38°26' W 021°00'0 0.2 1025.5
2014-Sep-23 10:00N 38°26' W 020°60'0 0.1 1025.3
2014-Sep-23 09:00N 38°26' W 020°60'1 0.4 1024.9
2014-Sep-23 07:00N 38°25' W 021°01'0 0.3 1024.1
2014-Sep-23 06:00N 38°25' W 021°00'0 0.5 1023.5
2014-Sep-23 05:00N 38°25' W 020°60'0 0.0 1023.2
2014-Sep-23 04:00N 38°25' W 020°60'2 0.8 1023.1
2014-Sep-23 02:00N 38°25' W 020°58'0 0.0 1023.4
2014-Sep-22 23:00N 38°25' W 020°58'1 1.3 1023.5
2014-Sep-22 22:00N 38°25' W 020°57'1 0.7 1023.3
2014-Sep-22 21:00N 38°25' W 020°56'0 0.4 1022.8
2014-Sep-22 20:00N 38°25' W 020°56'1 0.5 1022.1
2014-Sep-22 18:00N 38°25' W 020°55'0 0.0 1021.4
2014-Sep-22 17:00N 38°25' W 020°55'0 0.3 1021.2
2014-Sep-22 16:00N 38°26' W 020°55'0 0.1 1021.2
2014-Sep-22 15:00N 38°26' W 020°55'0 0.2 1021.3
2014-Sep-22 14:00N 38°26' W 020°55'0 0.1 1021.3
2014-Sep-22 12:00N 38°26' W 020°55'1 0.7 1021.0
2014-Sep-22 11:00N 38°25' W 020°55'1 0.4 1020.8
2014-Sep-22 08:00N 38°24' W 020°54'1 0.4 1019.6
2014-Sep-22 05:00N 38°24' W 020°53'1 1.1 1018.1
2014-Sep-22 04:00N 38°24' W 020°51'1 0.6 1018.0
2014-Sep-22 02:00N 38°25' W 020°51'1 0.4 1018.3
2014-Sep-21 23:00N 38°26' W 020°50'0 0.3 1018.7
2014-Sep-21 22:00N 38°26' W 020°50'0 0.3 1018.9
2014-Sep-21 21:00N 38°26' W 020°50'0 0.3 1018.8
2014-Sep-21 20:00N 38°26' W 020°51'0 0.2 1018.4
2014-Sep-21 18:00N 38°26' W 020°51'0 0.3 1017.9
2014-Sep-21 17:00N 38°26' W 020°51'0 0.4 1017.9
2014-Sep-21 16:00N 38°27' W 020°51'0 0.0 1017.9
2014-Sep-21 15:00N 38°27' W 020°51'0 0.3 1018.0
2014-Sep-21 14:00N 38°27' W 020°51'0 0.1 1018.5
2014-Sep-21 13:00N 38°27' W 020°51'1 0.5 1018.8
2014-Sep-21 12:00N 38°27' W 020°50'0 0.4 1018.8
2014-Sep-21 11:00N 38°27' W 020°50'0 0.0 1018.8
2014-Sep-21 10:00N 38°27' W 020°50'1 0.8 1018.7
2014-Sep-21 09:00N 38°26' W 020°50'1 0.9 1018.2
2014-Sep-21 08:00N 38°27' W 020°49'0 0.4 1018.0
2014-Sep-21 07:00N 38°26' W 020°49'0 0.4 1017.5
2014-Sep-21 06:00N 38°27' W 020°49'1 0.7 1017.2
2014-Sep-21 05:00N 38°27' W 020°49'0 0.3 1016.9
2014-Sep-21 04:00N 38°27' W 020°49'1 0.8 1016.7
2014-Sep-21 03:00N 38°28' W 020°50'0 0.1 1016.9
2014-Sep-21 02:00N 38°28' W 020°50'1 0.3 1017.4
2014-Sep-21 00:00N 38°28' W 020°50'0 0.1 1018.2
2014-Sep-20 23:00N 38°28' W 020°50'0 0.3 1018.5
2014-Sep-20 22:00N 38°28' W 020°51'0 0.3 1018.7
2014-Sep-20 21:00N 38°27' W 020°51'0 0.0 1018.5
2014-Sep-20 20:00N 38°27' W 020°51'0 0.3 1017.8
2014-Sep-20 19:00N 38°27' W 020°51'0 0.3 1017.8
2014-Sep-20 18:00N 38°27' W 020°51'0 0.2 1017.7
2014-Sep-20 17:00N 38°27' W 020°51'1 0.9 1017.7
2014-Sep-20 16:00N 38°27' W 020°50'0 0.2 1017.6
2014-Sep-20 15:00N 38°27' W 020°50'0 0.0 1017.7
2014-Sep-20 14:00N 38°27' W 020°50'1 0.3 1017.9
2014-Sep-20 12:00N 38°27' W 020°49'0 0.4 1018.4
2014-Sep-20 11:00N 38°28' W 020°49'1 0.9 1018.6
2014-Sep-20 10:00N 38°28' W 020°49'0 0.0 1018.3
2014-Sep-20 08:00N 38°28' W 020°49'0 0.1 1017.5
2014-Sep-20 07:00N 38°28' W 020°49'1 0.7 1017.0
2014-Sep-20 06:00N 38°29' W 020°49'0 0.3 1016.7
2014-Sep-20 05:00N 38°29' W 020°49'0 0.3 1016.5
2014-Sep-20 04:00N 38°29' W 020°49'0 0.1 1016.4
2014-Sep-20 02:00N 38°29' W 020°49'1 0.4 1016.7
2014-Sep-19 23:00N 38°29' W 020°50'1 1.2 1017.7
2014-Sep-19 22:00N 38°28' W 020°49'1 0.4 1017.5
2014-Sep-19 19:00N 38°28' W 020°48'0 0.2 1016.4
2014-Sep-19 18:00N 38°28' W 020°48'0 0.4 1016.2
2014-Sep-19 17:00N 38°28' W 020°47'1 0.7 1015.9
2014-Sep-19 16:00N 38°28' W 020°47'0 0.1 1015.5
2014-Sep-19 14:00N 38°29' W 020°46'1 0.4 1015.3
2014-Sep-19 12:00N 38°29' W 020°46'1 0.6 1016.0
2014-Sep-19 11:00N 38°30' W 020°47'1 0.9 1016.1
2014-Sep-19 10:00N 38°29' W 020°46'0 0.0 1015.6
2014-Sep-19 09:00N 38°29' W 020°46'2 0.5 1015.3
2014-Sep-19 06:00N 38°30' W 020°48'0 0.2 1014.0
2014-Sep-19 05:00N 38°30' W 020°48'0 0.4 1013.7
2014-Sep-19 04:00N 38°30' W 020°48'1 0.6 1013.7
2014-Sep-19 03:00N 38°29' W 020°48'1 0.2 1013.8
2014-Sep-18 22:00N 38°30' W 020°46'1 0.6 1014.9
2014-Sep-18 21:00N 38°30' W 020°46'0 0.4 1014.9
2014-Sep-18 20:00N 38°30' W 020°45'2 0.8 1014.4
2014-Sep-18 18:00N 38°31' W 020°47'1 0.3 1014.2
2014-Sep-18 16:00N 38°31' W 020°47'1 0.9 1014.3
2014-Sep-18 15:00N 38°32' W 020°48'0 0.0 1014.4
2014-Sep-18 14:00N 38°32' W 020°48'1 0.8 1014.8
2014-Sep-18 13:00N 38°32' W 020°48'0 0.1 1014.9
2014-Sep-18 12:00N 38°32' W 020°48'1 0.4 1015.0
2014-Sep-18 10:00N 38°33' W 020°49'2 1.8 1014.6
2014-Sep-18 09:00N 38°31' W 020°51'0 0.0 1014.4
2014-Sep-18 08:00N 38°31' W 020°51'1 0.9 1014.3
2014-Sep-18 07:00N 38°32' W 020°50'0 0.1 1013.8
2014-Sep-18 06:00N 38°32' W 020°50'0 0.1 1013.8
2014-Sep-18 05:00N 38°32' W 020°50'0 0.3 1013.7
2014-Sep-18 04:00N 38°32' W 020°50'0 0.3 1013.7
2014-Sep-18 03:00N 38°32' W 020°50'3 2.5 1013.8
2014-Sep-18 02:00N 38°34' W 020°49'0 0.1 1013.7
2014-Sep-17 23:00N 38°34' W 020°49'1 1.4 1014.3
2014-Sep-17 22:00N 38°36' W 020°49'1 1.3 1014.2
2014-Sep-17 21:00N 38°37' W 020°49'0 0.0 1013.9
2014-Sep-17 20:00N 38°37' W 020°49'1 0.7 1013.2
2014-Sep-17 19:00N 38°37' W 020°50'0 0.3 1013.0
2014-Sep-17 18:00N 38°38' W 020°50'1 0.7 1012.7
2014-Sep-17 17:00N 38°38' W 020°50'1 0.7 1012.4
2014-Sep-17 16:00N 38°38' W 020°51'1 0.9 1012.2
2014-Sep-17 15:00N 38°39' W 020°52'1 1.0 1012.2
2014-Sep-17 14:00N 38°39' W 020°53'0 0.0 1012.4
2014-Sep-17 13:00N 38°39' W 020°53'0 0.1 1012.4
2014-Sep-17 12:00N 38°39' W 020°53'1 1.1 1012.4
2014-Sep-17 11:00N 38°39' W 020°52'0 0.2 1012.4
2014-Sep-17 10:00N 38°39' W 020°52'1 0.7 1012.1
2014-Sep-17 08:00N 38°39' W 020°50'1 1.4 1011.3
2014-Sep-17 07:00N 38°40' W 020°49'0 0.0 1010.6
2014-Sep-17 06:00N 38°40' W 020°49'1 0.7 1010.2
2014-Sep-17 05:00N 38°41' W 020°49'2 0.8 1010.0
2014-Sep-17 03:00N 38°42' W 020°49'4 1.0 1010.1
2014-Sep-16 23:00N 38°45' W 020°52'0 0.1 1010.1
2014-Sep-16 22:00N 38°45' W 020°52'0 0.5 1010.0
2014-Sep-16 21:00N 38°45' W 020°53'1 0.3 1009.5
2014-Sep-16 19:00N 38°45' W 020°53'1 0.3 1008.1
2014-Sep-16 17:00N 38°44' W 020°53'0 0.4 1007.7
2014-Sep-16 16:00N 38°44' W 020°53'0 0.4 1007.4
2014-Sep-16 15:00N 38°45' W 020°52'1 0.5 1007.1
2014-Sep-16 13:00N 38°45' W 020°51'2 1.0 1006.9
2014-Sep-16 11:00N 38°47' W 020°49'0 0.0 1006.6
2014-Sep-16 10:00N 38°47' W 020°49'3 2.6 1006.3
2014-Sep-16 09:00N 38°49' W 020°49'0 0.2 1005.6
2014-Sep-16 07:00N 38°50' W 020°49'2 1.1 1004.1
2014-Sep-16 05:00N 38°52' W 020°51'1 0.5 1003.2
2014-Sep-16 03:00N 38°53' W 020°51'0 0.0 1003.3
2014-Sep-16 02:00N 38°53' W 020°51'1 0.7 1003.6
2014-Sep-16 00:00N 38°52' W 020°53'0 0.2 1004.0
2014-Sep-15 23:00N 38°52' W 020°53'1 0.5 1004.0
2014-Sep-15 22:00N 38°52' W 020°52'2 0.8 1004.0
2014-Sep-15 20:00N 38°52' W 020°50'1 1.2 1002.8
2014-Sep-15 19:00N 38°53' W 020°49'1 1.0 1002.5
2014-Sep-15 18:00N 38°53' W 020°48'1 1.0 1002.2
2014-Sep-15 17:00N 38°54' W 020°47'2 0.9 1001.6
2014-Sep-15 15:00N 38°55' W 020°47'1 1.3 1001.8
2014-Sep-15 14:00N 38°57' W 020°47'1 1.0 1002.4
2014-Sep-15 13:00N 38°58' W 020°47'0 0.2 1002.6
2014-Sep-15 12:00N 38°58' W 020°47'0 0.4 1002.5
2014-Sep-15 11:00N 38°58' W 020°47'1 1.0 1002.4
2014-Sep-15 10:00N 38°59' W 020°48'2 0.5 1002.2
2014-Sep-15 07:00N 38°57' W 020°49'0 0.4 1001.4
2014-Sep-15 06:00N 38°57' W 020°48'1 0.5 1001.1
2014-Sep-15 05:00N 38°57' W 020°48'1 0.9 1002.2
2014-Sep-15 04:00N 38°56' W 020°48'0 0.1 1002.0
2014-Sep-15 03:00N 38°56' W 020°48'2 0.5 1003.0
2014-Sep-14 23:00N 38°56' W 020°45'0 0.1 1006.2
2014-Sep-14 22:00N 38°56' W 020°45'1 1.0 1007.4
2014-Sep-14 21:00N 38°57' W 020°44'1 0.9 1007.4
2014-Sep-14 20:00N 38°57' W 020°44'0 0.3 1007.4
2014-Sep-14 19:00N 38°57' W 020°44'1 0.8 1007.0
2014-Sep-14 18:00N 38°58' W 020°45'1 0.9 1007.5
2014-Sep-14 17:00N 38°59' W 020°44'2 1.0 1007.6
2014-Sep-14 15:00N 38°59' W 020°46'1 0.5 1008.2
2014-Sep-14 13:00N 38°60' W 020°47'1 1.3 1008.8
2014-Sep-14 12:00N 39°00' W 020°49'2 1.8 1009.1
2014-Sep-14 11:00N 38°59' W 020°50'0 0.0 1009.1
2014-Sep-14 09:00N 38°59' W 020°50'1 1.0 1008.7
2014-Sep-14 08:00N 38°59' W 020°49'0 0.5 1008.4
2014-Sep-14 07:00N 38°59' W 020°48'1 0.6 1008.3
2014-Sep-14 06:00N 38°59' W 020°47'1 0.7 1007.9
2014-Sep-14 05:00N 38°60' W 020°47'1 0.6 1008.0
2014-Sep-14 04:00N 38°60' W 020°46'2 2.3 1008.1
2014-Sep-14 03:00N 39°02' W 020°46'1 1.5 1008.5
2014-Sep-14 02:00N 39°03' W 020°47'0 0.0 1009.0
2014-Sep-14 01:00N 39°03' W 020°47'1 0.5 1009.4
2014-Sep-13 23:00N 39°04' W 020°48'   1010.0
Track history (hours):
 
Tides and Currents Weather Stations Pressure Air Temp Water Temp Dewpoint Dewpoint Depression Visibility Wind Speed Wind Dir Waves Ship Positions

Drifting buoy 41560

Last reported at 2014-Sep-23 23:00 UTC. Time now 2014-Sep-24 02:27 UTC.
Position N 38°23' W 021°06'.

Barometer 1027.0 mb

Date/timePositionNaut miles runAvg speedWind from/ knotsBaromVisibWave heightAir tempDewpointWater temp
2014-Sep-23 23:00N 38°23' W 021°06'1 1.3 1027.0
2014-Sep-23 22:00N 38°24' W 021°05'1 1.1 1026.8
2014-Sep-23 21:00N 38°23' W 021°03'0 0.2 1026.7
2014-Sep-23 19:00N 38°23' W 021°03'1 0.6 1025.9
2014-Sep-23 17:00N 38°23' W 021°02'1 1.3 1025.2
2014-Sep-23 16:00N 38°24' W 021°01'0 0.4 1025.0
2014-Sep-23 15:00N 38°25' W 021°01'1 0.7 1025.2
2014-Sep-23 13:00N 38°26' W 020°60'0 0.4 1025.5
2014-Sep-23 12:00N 38°26' W 020°60'0 0.4 1025.6
2014-Sep-23 11:00N 38°26' W 021°00'0 0.2 1025.5
2014-Sep-23 10:00N 38°26' W 020°60'0 0.1 1025.3
2014-Sep-23 09:00N 38°26' W 020°60'1 0.4 1024.9
2014-Sep-23 07:00N 38°25' W 021°01'0 0.3 1024.1
2014-Sep-23 06:00N 38°25' W 021°00'0 0.5 1023.5
2014-Sep-23 05:00N 38°25' W 020°60'0 0.0 1023.2
2014-Sep-23 04:00N 38°25' W 020°60'2 0.8 1023.1
2014-Sep-23 02:00N 38°25' W 020°58'0 0.0 1023.4
2014-Sep-22 23:00N 38°25' W 020°58'1 1.3 1023.5
2014-Sep-22 22:00N 38°25' W 020°57'1 0.7 1023.3
2014-Sep-22 21:00N 38°25' W 020°56'0 0.4 1022.8
2014-Sep-22 20:00N 38°25' W 020°56'1 0.5 1022.1
2014-Sep-22 18:00N 38°25' W 020°55'0 0.0 1021.4
2014-Sep-22 17:00N 38°25' W 020°55'0 0.3 1021.2
2014-Sep-22 16:00N 38°26' W 020°55'0 0.1 1021.2
2014-Sep-22 15:00N 38°26' W 020°55'0 0.2 1021.3
2014-Sep-22 14:00N 38°26' W 020°55'0 0.1 1021.3
2014-Sep-22 12:00N 38°26' W 020°55'1 0.7 1021.0
2014-Sep-22 11:00N 38°25' W 020°55'1 0.4 1020.8
2014-Sep-22 08:00N 38°24' W 020°54'1 0.4 1019.6
2014-Sep-22 05:00N 38°24' W 020°53'1 1.1 1018.1
2014-Sep-22 04:00N 38°24' W 020°51'1 0.6 1018.0
2014-Sep-22 02:00N 38°25' W 020°51'1 0.4 1018.3
2014-Sep-21 23:00N 38°26' W 020°50'0 0.3 1018.7
2014-Sep-21 22:00N 38°26' W 020°50'0 0.3 1018.9
2014-Sep-21 21:00N 38°26' W 020°50'0 0.3 1018.8
2014-Sep-21 20:00N 38°26' W 020°51'0 0.2 1018.4
2014-Sep-21 18:00N 38°26' W 020°51'0 0.3 1017.9
2014-Sep-21 17:00N 38°26' W 020°51'0 0.4 1017.9
2014-Sep-21 16:00N 38°27' W 020°51'0 0.0 1017.9
2014-Sep-21 15:00N 38°27' W 020°51'0 0.3 1018.0
2014-Sep-21 14:00N 38°27' W 020°51'0 0.1 1018.5
2014-Sep-21 13:00N 38°27' W 020°51'1 0.5 1018.8
2014-Sep-21 12:00N 38°27' W 020°50'0 0.4 1018.8
2014-Sep-21 11:00N 38°27' W 020°50'0 0.0 1018.8
2014-Sep-21 10:00N 38°27' W 020°50'1 0.8 1018.7
2014-Sep-21 09:00N 38°26' W 020°50'1 0.9 1018.2
2014-Sep-21 08:00N 38°27' W 020°49'0 0.4 1018.0
2014-Sep-21 07:00N 38°26' W 020°49'0 0.4 1017.5
2014-Sep-21 06:00N 38°27' W 020°49'1 0.7 1017.2
2014-Sep-21 05:00N 38°27' W 020°49'0 0.3 1016.9
2014-Sep-21 04:00N 38°27' W 020°49'1 0.8 1016.7
2014-Sep-21 03:00N 38°28' W 020°50'0 0.1 1016.9
2014-Sep-21 02:00N 38°28' W 020°50'1 0.3 1017.4
2014-Sep-21 00:00N 38°28' W 020°50'0 0.1 1018.2
2014-Sep-20 23:00N 38°28' W 020°50'0 0.3 1018.5
2014-Sep-20 22:00N 38°28' W 020°51'0 0.3 1018.7
2014-Sep-20 21:00N 38°27' W 020°51'0 0.0 1018.5
2014-Sep-20 20:00N 38°27' W 020°51'0 0.3 1017.8
2014-Sep-20 19:00N 38°27' W 020°51'0 0.3 1017.8
2014-Sep-20 18:00N 38°27' W 020°51'0 0.2 1017.7
2014-Sep-20 17:00N 38°27' W 020°51'1 0.9 1017.7
2014-Sep-20 16:00N 38°27' W 020°50'0 0.2 1017.6
2014-Sep-20 15:00N 38°27' W 020°50'0 0.0 1017.7
2014-Sep-20 14:00N 38°27' W 020°50'1 0.3 1017.9
2014-Sep-20 12:00N 38°27' W 020°49'0 0.4 1018.4
2014-Sep-20 11:00N 38°28' W 020°49'1 0.9 1018.6
2014-Sep-20 10:00N 38°28' W 020°49'0 0.0 1018.3
2014-Sep-20 08:00N 38°28' W 020°49'0 0.1 1017.5
2014-Sep-20 07:00N 38°28' W 020°49'1 0.7 1017.0
2014-Sep-20 06:00N 38°29' W 020°49'0 0.3 1016.7
2014-Sep-20 05:00N 38°29' W 020°49'0 0.3 1016.5
2014-Sep-20 04:00N 38°29' W 020°49'0 0.1 1016.4
2014-Sep-20 02:00N 38°29' W 020°49'1 0.4 1016.7
2014-Sep-19 23:00N 38°29' W 020°50'1 1.2 1017.7
2014-Sep-19 22:00N 38°28' W 020°49'1 0.4 1017.5
2014-Sep-19 19:00N 38°28' W 020°48'0 0.2 1016.4
2014-Sep-19 18:00N 38°28' W 020°48'0 0.4 1016.2
2014-Sep-19 17:00N 38°28' W 020°47'1 0.7 1015.9
2014-Sep-19 16:00N 38°28' W 020°47'0 0.1 1015.5
2014-Sep-19 14:00N 38°29' W 020°46'1 0.4 1015.3
2014-Sep-19 12:00N 38°29' W 020°46'1 0.6 1016.0
2014-Sep-19 11:00N 38°30' W 020°47'1 0.9 1016.1
2014-Sep-19 10:00N 38°29' W 020°46'0 0.0 1015.6
2014-Sep-19 09:00N 38°29' W 020°46'2 0.5 1015.3
2014-Sep-19 06:00N 38°30' W 020°48'0 0.2 1014.0
2014-Sep-19 05:00N 38°30' W 020°48'0 0.4 1013.7
2014-Sep-19 04:00N 38°30' W 020°48'1 0.6 1013.7
2014-Sep-19 03:00N 38°29' W 020°48'1 0.2 1013.8
2014-Sep-18 22:00N 38°30' W 020°46'1 0.6 1014.9
2014-Sep-18 21:00N 38°30' W 020°46'0 0.4 1014.9
2014-Sep-18 20:00N 38°30' W 020°45'2 0.8 1014.4
2014-Sep-18 18:00N 38°31' W 020°47'1 0.3 1014.2
2014-Sep-18 16:00N 38°31' W 020°47'1 0.9 1014.3
2014-Sep-18 15:00N 38°32' W 020°48'0 0.0 1014.4
2014-Sep-18 14:00N 38°32' W 020°48'1 0.8 1014.8
2014-Sep-18 13:00N 38°32' W 020°48'0 0.1 1014.9
2014-Sep-18 12:00N 38°32' W 020°48'1 0.4 1015.0
2014-Sep-18 10:00N 38°33' W 020°49'2 1.8 1014.6
2014-Sep-18 09:00N 38°31' W 020°51'0 0.0 1014.4
2014-Sep-18 08:00N 38°31' W 020°51'1 0.9 1014.3
2014-Sep-18 07:00N 38°32' W 020°50'0 0.1 1013.8
2014-Sep-18 06:00N 38°32' W 020°50'0 0.1 1013.8
2014-Sep-18 05:00N 38°32' W 020°50'0 0.3 1013.7
2014-Sep-18 04:00N 38°32' W 020°50'0 0.3 1013.7
2014-Sep-18 03:00N 38°32' W 020°50'3 2.5 1013.8
2014-Sep-18 02:00N 38°34' W 020°49'0 0.1 1013.7
2014-Sep-17 23:00N 38°34' W 020°49'1 1.4 1014.3
2014-Sep-17 22:00N 38°36' W 020°49'1 1.3 1014.2
2014-Sep-17 21:00N 38°37' W 020°49'0 0.0 1013.9
2014-Sep-17 20:00N 38°37' W 020°49'1 0.7 1013.2
2014-Sep-17 19:00N 38°37' W 020°50'0 0.3 1013.0
2014-Sep-17 18:00N 38°38' W 020°50'1 0.7 1012.7
2014-Sep-17 17:00N 38°38' W 020°50'1 0.7 1012.4
2014-Sep-17 16:00N 38°38' W 020°51'1 0.9 1012.2
2014-Sep-17 15:00N 38°39' W 020°52'1 1.0 1012.2
2014-Sep-17 14:00N 38°39' W 020°53'0 0.0 1012.4
2014-Sep-17 13:00N 38°39' W 020°53'0 0.1 1012.4
2014-Sep-17 12:00N 38°39' W 020°53'1 1.1 1012.4
2014-Sep-17 11:00N 38°39' W 020°52'0 0.2 1012.4
2014-Sep-17 10:00N 38°39' W 020°52'1 0.7 1012.1
2014-Sep-17 08:00N 38°39' W 020°50'1 1.4 1011.3
2014-Sep-17 07:00N 38°40' W 020°49'0 0.0 1010.6
2014-Sep-17 06:00N 38°40' W 020°49'1 0.7 1010.2
2014-Sep-17 05:00N 38°41' W 020°49'2 0.8 1010.0
2014-Sep-17 03:00N 38°42' W 020°49'4 1.0 1010.1
2014-Sep-16 23:00N 38°45' W 020°52'0 0.1 1010.1
2014-Sep-16 22:00N 38°45' W 020°52'0 0.5 1010.0
2014-Sep-16 21:00N 38°45' W 020°53'1 0.3 1009.5
2014-Sep-16 19:00N 38°45' W 020°53'1 0.3 1008.1
2014-Sep-16 17:00N 38°44' W 020°53'0 0.4 1007.7
2014-Sep-16 16:00N 38°44' W 020°53'0 0.4 1007.4
2014-Sep-16 15:00N 38°45' W 020°52'1 0.5 1007.1
2014-Sep-16 13:00N 38°45' W 020°51'2 1.0 1006.9
2014-Sep-16 11:00N 38°47' W 020°49'0 0.0 1006.6
2014-Sep-16 10:00N 38°47' W 020°49'3 2.6 1006.3
2014-Sep-16 09:00N 38°49' W 020°49'0 0.2 1005.6
2014-Sep-16 07:00N 38°50' W 020°49'2 1.1 1004.1
2014-Sep-16 05:00N 38°52' W 020°51'1 0.5 1003.2
2014-Sep-16 03:00N 38°53' W 020°51'0 0.0 1003.3
2014-Sep-16 02:00N 38°53' W 020°51'1 0.7 1003.6
2014-Sep-16 00:00N 38°52' W 020°53'0 0.2 1004.0
2014-Sep-15 23:00N 38°52' W 020°53'1 0.5 1004.0
2014-Sep-15 22:00N 38°52' W 020°52'2 0.8 1004.0
2014-Sep-15 20:00N 38°52' W 020°50'1 1.2 1002.8
2014-Sep-15 19:00N 38°53' W 020°49'1 1.0 1002.5
2014-Sep-15 18:00N 38°53' W 020°48'1 1.0 1002.2
2014-Sep-15 17:00N 38°54' W 020°47'2 0.9 1001.6
2014-Sep-15 15:00N 38°55' W 020°47'1 1.3 1001.8
2014-Sep-15 14:00N 38°57' W 020°47'1 1.0 1002.4
2014-Sep-15 13:00N 38°58' W 020°47'0 0.2 1002.6
2014-Sep-15 12:00N 38°58' W 020°47'0 0.4 1002.5
2014-Sep-15 11:00N 38°58' W 020°47'1 1.0 1002.4
2014-Sep-15 10:00N 38°59' W 020°48'2 0.5 1002.2
2014-Sep-15 07:00N 38°57' W 020°49'0 0.4 1001.4
2014-Sep-15 06:00N 38°57' W 020°48'1 0.5 1001.1
2014-Sep-15 05:00N 38°57' W 020°48'1 0.9 1002.2
2014-Sep-15 04:00N 38°56' W 020°48'0 0.1 1002.0
2014-Sep-15 03:00N 38°56' W 020°48'2 0.5 1003.0
2014-Sep-14 23:00N 38°56' W 020°45'0 0.1 1006.2
2014-Sep-14 22:00N 38°56' W 020°45'1 1.0 1007.4
2014-Sep-14 21:00N 38°57' W 020°44'1 0.9 1007.4
2014-Sep-14 20:00N 38°57' W 020°44'0 0.3 1007.4
2014-Sep-14 19:00N 38°57' W 020°44'1 0.8 1007.0
2014-Sep-14 18:00N 38°58' W 020°45'1 0.9 1007.5
2014-Sep-14 17:00N 38°59' W 020°44'2 1.0 1007.6
2014-Sep-14 15:00N 38°59' W 020°46'1 0.5 1008.2
2014-Sep-14 13:00N 38°60' W 020°47'1 1.3 1008.8
2014-Sep-14 12:00N 39°00' W 020°49'2 1.8 1009.1
2014-Sep-14 11:00N 38°59' W 020°50'0 0.0 1009.1
2014-Sep-14 09:00N 38°59' W 020°50'1 1.0 1008.7
2014-Sep-14 08:00N 38°59' W 020°49'0 0.5 1008.4
2014-Sep-14 07:00N 38°59' W 020°48'1 0.6 1008.3
2014-Sep-14 06:00N 38°59' W 020°47'1 0.7 1007.9
2014-Sep-14 05:00N 38°60' W 020°47'1 0.6 1008.0
2014-Sep-14 04:00N 38°60' W 020°46'2 2.3 1008.1
2014-Sep-14 03:00N 39°02' W 020°46'1 1.5 1008.5
2014-Sep-14 02:00N 39°03' W 020°47'0 0.0 1009.0
2014-Sep-14 01:00N 39°03' W 020°47'1 0.5 1009.4
2014-Sep-13 23:00N 39°04' W 020°48'   1010.0

Dump ship's entire track history